createdAt,value
2023-02-11T00:01:57.378Z,103283.41
2023-02-11T00:04:25.539Z,103284.28
2023-02-11T00:06:52.467Z,103297.41
2023-02-11T00:09:19.149Z,103294.00
2023-02-11T00:11:46.076Z,103303.75
2023-02-11T00:14:14.132Z,103310.84
2023-02-11T00:16:44.013Z,103292.31
2023-02-11T00:19:10.852Z,103294.84
2023-02-11T00:21:37.728Z,103296.56
2023-02-11T00:24:04.826Z,103283.31
2023-02-11T00:26:33.434Z,103284.06
2023-02-11T00:29:02.373Z,103278.88
2023-02-11T00:31:33.678Z,103284.19
2023-02-11T00:34:01.645Z,103285.97
2023-02-11T00:36:29.838Z,103285.13
2023-02-11T00:39:00.170Z,103287.66
2023-02-11T00:41:27.221Z,103285.97
2023-02-11T00:43:54.169Z,103300.16
2023-02-11T00:46:21.930Z,103303.66
2023-02-11T00:48:51.789Z,103300.06
2023-02-11T00:51:18.928Z,103295.72
2023-02-11T00:53:45.631Z,103303.66
2023-02-11T00:56:12.461Z,103305.34
2023-02-11T00:58:39.285Z,103299.97
2023-02-11T01:01:06.284Z,103310.53
2023-02-11T01:03:33.374Z,103299.81
2023-02-11T01:06:02.232Z,103298.03
2023-02-11T01:08:29.195Z,103297.31
2023-02-11T01:10:57.607Z,103292.75
2023-02-11T01:13:25.864Z,103283.84
2023-02-11T01:15:53.266Z,103283.84
2023-02-11T01:18:20.643Z,103272.41
2023-02-11T01:20:47.462Z,103275.06
2023-02-11T01:23:15.639Z,103264.59
2023-02-11T01:25:42.440Z,103264.59
2023-02-11T01:28:16.866Z,103253.28
2023-02-11T01:30:43.854Z,103252.31
2023-02-11T01:33:10.912Z,103248.94
2023-02-11T01:35:38.712Z,103249.88
2023-02-11T01:38:06.794Z,103256.88
2023-02-11T01:40:35.076Z,103263.09
2023-02-11T01:43:02.704Z,103266.69
2023-02-11T01:46:08.112Z,103263.19
2023-02-11T01:48:38.833Z,103269.44
2023-02-11T01:51:09.246Z,103279.31
2023-02-11T01:53:56.313Z,103291.69
2023-02-11T01:56:44.737Z,103290.75
2023-02-11T01:59:16.769Z,103280.25
2023-02-11T02:01:48.858Z,103276.66
2023-02-11T02:04:18.074Z,103271.38
2023-02-11T02:06:50.746Z,103274.88
2023-02-11T02:09:22.798Z,103280.03
2023-02-11T02:11:51.771Z,103292.22
2023-02-11T02:14:19.052Z,103286.06
2023-02-11T02:16:46.182Z,103281.00
2023-02-11T02:19:56.075Z,103275.59
2023-02-11T02:22:55.670Z,103263.34
2023-02-11T02:25:47.525Z,103265.97
2023-02-11T02:28:37.062Z,103253.88
2023-02-11T02:31:28.185Z,103253.13
2023-02-11T02:34:02.132Z,103248.69
2023-02-11T02:36:37.147Z,103250.50
2023-02-11T02:39:10.719Z,103241.69
2023-02-11T02:41:39.507Z,103243.41
2023-02-11T02:44:08.355Z,103252.19
2023-02-11T02:46:36.570Z,103252.09
2023-02-11T02:49:07.367Z,103253.88
2023-02-11T02:52:00.149Z,103231.97
2023-02-11T02:54:44.928Z,103238.25
2023-02-11T02:57:27.432Z,103235.59
2023-02-11T03:00:08.460Z,103234.75
2023-02-11T03:02:41.582Z,103231.25
2023-02-11T03:05:16.367Z,103223.31
2023-02-11T03:07:48.505Z,103225.09
2023-02-11T03:10:19.712Z,103234.75
2023-02-11T03:12:50.446Z,103233.91
2023-02-11T03:15:19.503Z,103233.91
2023-02-11T03:17:49.767Z,103230.59
2023-02-11T03:20:20.428Z,103227.84
2023-02-11T03:22:50.808Z,103228.81
2023-02-11T03:25:18.201Z,103224.44
2023-02-11T03:27:52.638Z,103223.50
2023-02-11T03:30:26.789Z,103218.22
2023-02-11T03:33:00.245Z,103222.75
2023-02-11T03:35:33.092Z,103218.44
2023-02-11T03:38:02.710Z,103214.94
2023-02-11T03:40:32.650Z,103218.44
2023-02-11T03:43:02.873Z,103210.50
2023-02-11T03:45:30.631Z,103204.38
2023-02-11T03:48:01.049Z,103206.16
2023-02-11T03:50:32.646Z,103200.88
2023-02-11T03:53:02.374Z,103200.88
2023-02-11T03:55:30.873Z,103201.72
2023-02-11T03:57:57.652Z,103198.09
2023-02-11T04:00:30.680Z,103206.03
2023-02-11T04:02:57.553Z,103212.19
2023-02-11T04:05:24.471Z,103212.31
2023-02-11T04:07:52.690Z,103232.41
2023-02-11T04:10:19.881Z,103230.69
2023-02-11T04:12:46.809Z,103233.25
2023-02-11T04:15:13.485Z,103230.69
2023-02-11T04:17:40.339Z,103237.69
2023-02-11T04:20:08.015Z,103241.19
2023-02-11T04:22:34.778Z,103249.13
2023-02-11T04:25:03.094Z,103255.25
2023-02-11T04:27:30.035Z,103245.53
2023-02-11T04:29:56.792Z,103241.19
2023-02-11T04:32:23.625Z,103228.91
2023-02-11T04:34:50.581Z,103228.81
2023-02-11T04:37:17.429Z,103229.56
2023-02-11T04:39:44.163Z,103225.22
2023-02-11T04:42:12.367Z,103233.03
2023-02-11T04:44:39.170Z,103237.50
2023-02-11T04:47:05.993Z,103241.84
2023-02-11T04:49:32.756Z,103233.75
2023-02-11T04:51:59.600Z,103237.25
2023-02-11T04:54:26.428Z,103242.56
2023-02-11T04:56:53.174Z,103239.91
2023-02-11T04:59:21.264Z,103237.25
2023-02-11T05:01:48.068Z,103238.09
2023-02-11T05:04:14.876Z,103232.81
2023-02-11T05:06:41.836Z,103231.97
2023-02-11T05:09:10.390Z,103225.81
2023-02-11T05:11:39.325Z,103228.38
2023-02-11T05:14:06.749Z,103224.03
2023-02-11T05:16:35.768Z,103226.69
2023-02-11T05:19:02.542Z,103235.59
2023-02-11T05:21:29.297Z,103221.50
2023-02-11T05:23:57.177Z,103231.97
2023-02-11T05:26:23.904Z,103235.59
2023-02-11T05:28:50.671Z,103234.63
2023-02-11T05:31:17.590Z,103243.41
2023-02-11T05:33:45.784Z,103240.66
2023-02-11T05:36:13.693Z,103233.66
2023-02-11T05:38:40.732Z,103236.31
2023-02-11T05:41:07.598Z,103238.97
2023-02-11T05:43:37.479Z,103245.94
2023-02-11T05:46:04.924Z,103245.94
2023-02-11T05:48:32.030Z,103248.59
2023-02-11T05:51:00.093Z,103241.50
2023-02-11T05:53:27.024Z,103236.22
2023-02-11T05:55:53.792Z,103240.66
2023-02-11T05:58:20.725Z,103243.09
2023-02-11T06:00:47.510Z,103236.03
2023-02-11T06:03:16.613Z,103244.06
2023-02-11T06:05:43.568Z,103243.09
2023-02-11T06:08:12.343Z,103250.19
2023-02-11T06:10:39.436Z,103252.75
2023-02-11T06:13:06.243Z,103251.03
2023-02-11T06:15:33.099Z,103254.63
2023-02-11T06:17:59.950Z,103252.84
2023-02-11T06:20:26.764Z,103243.09
2023-02-11T06:22:53.949Z,103247.44
2023-02-11T06:25:22.251Z,103239.50
2023-02-11T06:27:49.151Z,103237.69
2023-02-11T06:30:16.059Z,103236.03
2023-02-11T06:32:45.997Z,103244.81
2023-02-11T06:35:13.579Z,103236.88
2023-02-11T06:37:40.868Z,103242.97
2023-02-11T06:40:08.631Z,103246.47
2023-02-11T06:42:39.154Z,103237.69
2023-02-11T06:45:09.044Z,103249.97
2023-02-11T06:47:36.132Z,103252.75
2023-02-11T06:50:03.646Z,103247.31
2023-02-11T06:52:30.476Z,103246.47
2023-02-11T06:54:57.323Z,103248.16
2023-02-11T06:57:24.156Z,103252.53
2023-02-11T06:59:54.393Z,103252.53
2023-02-11T07:02:21.475Z,103258.66
2023-02-11T07:04:48.355Z,103255.91
2023-02-11T07:07:15.306Z,103256.75
2023-02-11T07:09:42.291Z,103250.63
2023-02-11T07:12:12.185Z,103252.31
2023-02-11T07:14:39.510Z,103252.41
2023-02-11T07:17:07.686Z,103260.34
2023-02-11T07:19:34.592Z,103264.81
2023-02-11T07:22:01.488Z,103274.44
2023-02-11T07:24:28.281Z,103275.38
2023-02-11T07:26:55.263Z,103282.38
2023-02-11T07:29:22.143Z,103276.25
2023-02-11T07:31:49.213Z,103280.69
2023-02-11T07:34:17.475Z,103274.44
2023-02-11T07:36:45.116Z,103278.78
2023-02-11T07:39:12.061Z,103285.78
2023-02-11T07:41:39.191Z,103292.75
2023-02-11T07:44:06.355Z,103290.09
2023-02-11T07:46:34.671Z,103295.28
2023-02-11T07:49:01.672Z,103288.19
2023-02-11T07:51:31.449Z,103284.69
2023-02-11T07:54:00.260Z,103281.97
2023-02-11T07:56:28.174Z,103283.66
2023-02-11T07:59:01.355Z,103273.91
2023-02-11T08:01:31.440Z,103283.66
2023-02-11T08:03:59.599Z,103287.88
2023-02-11T08:06:30.133Z,103287.06
2023-02-11T08:08:57.133Z,103283.44
2023-02-11T08:11:26.922Z,103284.41
2023-02-11T08:13:55.122Z,103286.81
2023-02-11T08:16:25.094Z,103288.53
2023-02-11T08:18:53.185Z,103292.88
2023-02-11T08:21:20.593Z,103279.53
2023-02-11T08:23:49.801Z,103283.75
2023-02-11T08:26:19.344Z,103279.31
2023-02-11T08:28:48.192Z,103280.91
2023-02-11T08:31:17.748Z,103280.91
2023-02-11T08:33:45.341Z,103281.75
2023-02-11T08:36:14.421Z,103284.31
2023-02-11T08:38:41.590Z,103292.25
2023-02-11T08:41:10.065Z,103290.31
2023-02-11T08:43:41.718Z,103291.06
2023-02-11T08:46:09.392Z,103292.78
2023-02-11T08:48:36.334Z,103297.00
2023-02-11T08:51:06.708Z,103304.81
2023-02-11T08:53:33.709Z,103303.03
2023-02-11T08:56:00.625Z,103313.44
2023-02-11T08:58:28.972Z,103318.63
2023-02-11T09:00:55.867Z,103317.53
2023-02-11T09:03:22.684Z,103320.09
2023-02-11T09:05:53.122Z,103320.84
2023-02-11T09:08:21.115Z,103324.22
2023-02-11T09:10:48.119Z,103323.25
2023-02-11T09:13:15.016Z,103324.84
2023-02-11T09:15:45.254Z,103313.22
2023-02-11T09:18:12.414Z,103320.19
2023-02-11T09:20:39.199Z,103321.88
2023-02-11T09:23:05.971Z,103329.63
2023-02-11T09:25:32.735Z,103331.22
2023-02-11T09:27:59.753Z,103332.78
2023-02-11T09:30:26.740Z,103338.00
2023-02-11T09:32:54.969Z,103335.97
2023-02-11T09:35:21.742Z,103348.91
2023-02-11T09:37:48.672Z,103341.69
2023-02-11T09:40:16.361Z,103345.16
2023-02-11T09:42:51.074Z,103347.63
2023-02-11T09:45:20.681Z,103344.81
2023-02-11T09:47:51.384Z,103349.88
2023-02-11T09:50:24.444Z,103359.41
2023-02-11T09:52:56.918Z,103353.03
2023-02-11T09:55:26.732Z,103360.88
2023-02-11T09:57:53.785Z,103354.53
2023-02-11T10:00:24.234Z,103359.59
2023-02-11T10:03:05.137Z,103369.03
2023-02-11T10:05:53.710Z,103373.28
2023-02-11T10:08:31.833Z,103381.97
2023-02-11T10:11:03.357Z,103388.09
2023-02-11T10:13:43.994Z,103386.94
2023-02-11T10:16:22.009Z,103385.88
2023-02-11T10:19:11.308Z,103395.50
2023-02-11T10:21:47.831Z,103397.13
2023-02-11T10:24:16.363Z,103397.00
2023-02-11T10:26:44.601Z,103408.34
2023-02-11T10:29:21.359Z,103411.63
2023-02-11T10:31:50.898Z,103414.19
2023-02-11T10:34:17.743Z,103412.34
2023-02-11T10:36:46.360Z,103417.44
2023-02-11T10:39:15.856Z,103421.69
2023-02-11T10:41:46.172Z,103423.41
2023-02-11T10:44:27.657Z,103416.91
2023-02-11T10:46:56.443Z,103421.16
2023-02-11T10:49:39.411Z,103425.38
2023-02-11T10:52:18.309Z,103424.41
2023-02-11T10:54:57.395Z,103427.81
2023-02-11T10:57:28.116Z,103425.06
2023-02-11T10:59:59.796Z,103423.13
2023-02-11T11:02:32.211Z,103430.88
2023-02-11T11:05:00.940Z,103426.19
2023-02-11T11:07:31.168Z,103427.66
2023-02-11T11:10:02.454Z,103428.28
2023-02-11T11:12:35.232Z,103425.41
2023-02-11T11:15:13.587Z,103434.13
2023-02-11T11:17:40.462Z,103430.28
2023-02-11T11:20:22.466Z,103437.03
2023-02-11T11:22:52.577Z,103437.78
2023-02-11T11:25:24.786Z,103438.28
2023-02-11T11:27:54.163Z,103431.06
2023-02-11T11:30:23.499Z,103429.03
2023-02-11T11:32:50.444Z,103429.75
2023-02-11T11:35:27.058Z,103437.50
2023-02-11T11:38:01.402Z,103435.59
2023-02-11T11:40:30.361Z,103436.19
2023-02-11T11:43:06.734Z,103423.66
2023-02-11T11:45:33.560Z,103420.66
2023-02-11T11:48:07.102Z,103420.34
2023-02-11T11:50:37.040Z,103418.28
2023-02-11T11:53:13.951Z,103412.03
2023-02-11T11:55:45.002Z,103400.19
2023-02-11T11:58:16.593Z,103396.47
2023-02-11T12:00:54.780Z,103404.22
2023-02-11T12:04:02.821Z,103403.97
2023-02-11T12:06:42.679Z,103402.78
2023-02-11T12:09:23.519Z,103409.53
2023-02-11T12:12:14.104Z,103413.53
2023-02-11T12:14:49.561Z,103407.03
2023-02-11T12:17:33.977Z,103404.03
2023-02-11T12:20:18.233Z,103392.94
2023-02-11T12:22:59.073Z,103395.25
2023-02-11T12:25:30.168Z,103384.25
2023-02-11T12:28:16.227Z,103388.38
2023-02-11T12:30:56.803Z,103391.56
2023-02-11T12:33:45.423Z,103385.13
2023-02-11T12:36:21.197Z,103386.72
2023-02-11T12:39:03.043Z,103387.31
2023-02-11T12:42:15.122Z,103390.59
2023-02-11T12:44:58.361Z,103393.84
2023-02-11T12:47:32.667Z,103395.53
2023-02-11T12:50:18.147Z,103392.75
2023-02-11T12:53:08.332Z,103394.22
2023-02-11T12:55:38.687Z,103393.13
2023-02-11T12:58:15.073Z,103392.78
2023-02-11T13:00:49.593Z,103397.84
2023-02-11T13:03:22.901Z,103390.31
2023-02-11T13:05:53.074Z,103399.78
2023-02-11T13:08:25.015Z,103390.69
2023-02-11T13:10:58.392Z,103388.53
2023-02-11T13:13:31.387Z,103384.91
2023-02-11T13:16:06.960Z,103382.94
2023-02-11T13:18:49.659Z,103382.69
2023-02-11T13:21:30.634Z,103383.44
2023-02-11T13:24:10.226Z,103381.47
2023-02-11T13:26:45.885Z,103386.56
2023-02-11T13:29:36.462Z,103380.16
2023-02-11T13:32:08.519Z,103370.22
2023-02-11T13:34:58.998Z,103371.19
2023-02-11T13:37:29.360Z,103375.53
2023-02-11T13:39:58.722Z,103375.41
2023-02-11T13:42:26.211Z,103378.06
2023-02-11T13:44:56.452Z,103385.09
2023-02-11T13:47:32.129Z,103381.59
2023-02-11T13:50:02.797Z,103376.38
2023-02-11T13:52:32.465Z,103373.72
2023-02-11T13:55:05.901Z,103372.63
2023-02-11T13:57:35.942Z,103378.94
2023-02-11T14:00:41.896Z,103381.47
2023-02-11T14:03:42.656Z,103388.72
2023-02-11T14:06:35.700Z,103382.81
2023-02-11T14:09:27.675Z,103380.28
2023-02-11T14:12:32.270Z,103372.53
2023-02-11T14:15:03.806Z,103380.38
2023-02-11T14:17:34.560Z,103384.88
2023-02-11T14:20:04.676Z,103382.09
2023-02-11T14:22:44.556Z,103382.94
2023-02-11T14:25:22.037Z,103388.25
2023-02-11T14:27:56.805Z,103384.63
2023-02-11T14:30:52.815Z,103381.13
2023-02-11T14:33:47.773Z,103389.09
2023-02-11T14:36:30.862Z,103388.13
2023-02-11T14:39:07.165Z,103393.47
2023-02-11T14:41:41.069Z,103392.47
2023-02-11T14:44:15.171Z,103394.03
2023-02-11T14:46:45.502Z,103400.22
2023-02-11T14:49:21.679Z,103393.81
2023-02-11T14:51:48.643Z,103397.31
2023-02-11T14:54:22.709Z,103390.31
2023-02-11T14:57:06.275Z,103391.28
2023-02-11T14:59:35.169Z,103392.13
2023-02-11T15:02:02.257Z,103392.97
2023-02-11T15:04:35.516Z,103395.63
2023-02-11T15:07:07.062Z,103388.59
2023-02-11T15:09:40.795Z,103390.41
2023-02-11T15:12:18.669Z,103390.41
2023-02-11T15:14:48.215Z,103396.59
2023-02-11T15:17:19.541Z,103408.09
2023-02-11T15:19:50.962Z,103414.25
2023-02-11T15:22:22.020Z,103412.56
2023-02-11T15:24:59.758Z,103422.34
2023-02-11T15:27:26.992Z,103414.25
2023-02-11T15:29:53.832Z,103422.25
2023-02-11T15:32:23.718Z,103423.19
2023-02-11T15:34:54.049Z,103424.16
2023-02-11T15:37:23.236Z,103419.81
2023-02-11T15:39:51.125Z,103423.31
2023-02-11T15:42:20.389Z,103429.59
2023-02-11T15:44:54.298Z,103434.81
2023-02-11T15:47:30.254Z,103430.56
2023-02-11T15:49:58.837Z,103435.78
2023-02-11T15:52:28.013Z,103425.13
2023-02-11T15:54:59.492Z,103430.34
2023-02-11T15:57:26.695Z,103429.47
2023-02-11T15:59:54.919Z,103426.09
2023-02-11T16:02:28.546Z,103427.06
2023-02-11T16:04:58.872Z,103416.56
2023-02-11T16:07:44.326Z,103428.06
2023-02-11T16:10:23.719Z,103429.03
2023-02-11T16:13:15.735Z,103425.63
2023-02-11T16:15:46.521Z,103425.00
2023-02-11T16:18:28.538Z,103435.91
2023-02-11T16:21:07.258Z,103445.94
2023-02-11T16:23:38.905Z,103442.56
2023-02-11T16:26:17.359Z,103436.63
2023-02-11T16:28:44.314Z,103433.25
2023-02-11T16:31:11.495Z,103443.06
2023-02-11T16:33:38.380Z,103447.66
2023-02-11T16:36:11.994Z,103450.53
2023-02-11T16:38:38.852Z,103451.66
2023-02-11T16:41:05.744Z,103450.06
2023-02-11T16:43:32.576Z,103454.63
2023-02-11T16:45:59.406Z,103459.38
2023-02-11T16:48:26.383Z,103452.56
2023-02-11T16:50:53.744Z,103460.69
2023-02-11T16:53:25.236Z,103457.41
2023-02-11T16:55:53.081Z,103463.81
2023-02-11T16:58:20.148Z,103465.03
2023-02-11T17:00:48.371Z,103462.72
2023-02-11T17:03:20.531Z,103472.75
2023-02-11T17:05:55.330Z,103464.28
2023-02-11T17:08:24.190Z,103468.22
2023-02-11T17:10:51.181Z,103473.03
2023-02-11T17:13:18.200Z,103472.53
2023-02-11T17:15:44.966Z,103464.91
2023-02-11T17:18:13.808Z,103475.03
2023-02-11T17:20:40.800Z,103484.31
2023-02-11T17:23:07.793Z,103483.81
2023-02-11T17:25:42.000Z,103491.16
2023-02-11T17:28:12.150Z,103492.47
2023-02-11T17:30:41.359Z,103500.78
2023-02-11T17:33:08.235Z,103506.41
2023-02-11T17:35:34.973Z,103503.16
2023-02-11T17:38:01.732Z,103512.28
2023-02-11T17:40:28.640Z,103513.59
2023-02-11T17:42:56.894Z,103515.53
2023-02-11T17:45:23.681Z,103516.81
2023-02-11T17:47:50.826Z,103516.09
2023-02-11T17:50:17.927Z,103516.41
2023-02-11T17:52:44.980Z,103511.44
2023-02-11T17:55:11.951Z,103516.09
2023-02-11T17:57:39.284Z,103513.69
2023-02-11T18:00:09.684Z,103508.59
2023-02-11T18:02:36.570Z,103520.41
2023-02-11T18:05:03.626Z,103522.53
2023-02-11T18:07:30.578Z,103529.84
2023-02-11T18:09:57.338Z,103533.78
2023-02-11T18:12:26.923Z,103531.44
2023-02-11T18:14:58.012Z,103535.28
2023-02-11T18:17:26.761Z,103538.13
2023-02-11T18:19:55.901Z,103535.63
2023-02-11T18:22:22.995Z,103548.22
2023-02-11T18:24:51.810Z,103544.81
2023-02-11T18:27:18.552Z,103545.06
2023-02-11T18:29:45.318Z,103553.13
2023-02-11T18:32:12.763Z,103544.53
2023-02-11T18:34:41.664Z,103552.59
2023-02-11T18:37:08.587Z,103556.31
2023-02-11T18:39:35.393Z,103565.19
2023-02-11T18:42:02.344Z,103567.00
2023-02-11T18:44:29.255Z,103567.13
2023-02-11T18:46:59.005Z,103566.28
2023-02-11T18:49:25.692Z,103571.59
2023-02-11T18:51:53.993Z,103575.94
2023-02-11T18:54:22.912Z,103574.25
2023-02-11T18:56:49.801Z,103575.09
2023-02-11T18:59:16.613Z,103576.88
2023-02-11T19:01:46.862Z,103576.75
2023-02-11T19:04:21.761Z,103585.69
2023-02-11T19:06:49.981Z,103595.31
2023-02-11T19:09:20.585Z,103590.88
2023-02-11T19:11:47.653Z,103597.88
2023-02-11T19:14:15.971Z,103593.44
2023-02-11T19:16:44.576Z,103590.78
2023-02-11T19:19:11.753Z,103591.72
2023-02-11T19:21:38.596Z,103599.47
2023-02-11T19:24:07.728Z,103602.13
2023-02-11T19:26:36.759Z,103599.38
2023-02-11T19:29:04.620Z,103608.28
2023-02-11T19:31:32.359Z,103608.19
2023-02-11T19:33:59.312Z,103600.25
2023-02-11T19:36:26.121Z,103611.56
2023-02-11T19:38:53.059Z,103617.63
2023-02-11T19:41:22.234Z,103626.53
2023-02-11T19:43:53.837Z,103628.22
2023-02-11T19:46:23.871Z,103623.78
2023-02-11T19:48:51.154Z,103621.13
2023-02-11T19:51:18.181Z,103614.88
2023-02-11T19:53:45.794Z,103625.38
2023-02-11T19:56:13.877Z,103626.25
2023-02-11T19:58:41.928Z,103627.06
2023-02-11T20:01:12.602Z,103632.25
2023-02-11T20:03:42.161Z,103636.63
2023-02-11T20:06:13.097Z,103636.53
2023-02-11T20:08:40.342Z,103638.31
2023-02-11T20:11:08.591Z,103644.38
2023-02-11T20:13:35.459Z,103648.84
2023-02-11T20:16:07.265Z,103650.63
2023-02-11T20:18:38.292Z,103653.19
2023-02-11T20:21:08.624Z,103660.28
2023-02-11T20:23:35.830Z,103660.28
2023-02-11T20:26:06.933Z,103654.03
2023-02-11T20:28:33.629Z,103655.84
2023-02-11T20:31:00.937Z,103655.94
2023-02-11T20:33:29.964Z,103654.13
2023-02-11T20:35:59.483Z,103651.50
2023-02-11T20:38:26.887Z,103655.00
2023-02-11T20:40:54.120Z,103657.66
2023-02-11T20:43:22.031Z,103658.50
2023-02-11T20:45:49.591Z,103657.66
2023-02-11T20:48:16.724Z,103652.34
2023-02-11T20:50:43.475Z,103662.00
2023-02-11T20:53:11.759Z,103662.81
2023-02-11T20:55:39.247Z,103660.16
2023-02-11T20:58:07.188Z,103666.31
2023-02-11T21:00:36.135Z,103676.94
2023-02-11T21:03:03.617Z,103679.59
2023-02-11T21:05:31.169Z,103683.09
2023-02-11T21:08:00.719Z,103684.78
2023-02-11T21:10:28.878Z,103686.59
2023-02-11T21:12:55.761Z,103685.75
2023-02-11T21:15:24.167Z,103693.72
2023-02-11T21:17:51.381Z,103696.34
2023-02-11T21:20:18.555Z,103695.63
2023-02-11T21:22:45.460Z,103696.50
2023-02-11T21:25:12.346Z,103693.72
2023-02-11T21:27:40.593Z,103699.00
2023-02-11T21:30:08.587Z,103706.13
2023-02-11T21:32:35.982Z,103701.66
2023-02-11T21:35:03.321Z,103704.31
2023-02-11T21:37:30.241Z,103701.66
2023-02-11T21:39:56.941Z,103708.69
2023-02-11T21:42:23.783Z,103698.06
2023-02-11T21:44:51.956Z,103705.06
2023-02-11T21:47:18.751Z,103706.03
2023-02-11T21:49:45.521Z,103707.72
2023-02-11T21:52:12.465Z,103711.31
2023-02-11T21:54:39.246Z,103719.28
2023-02-11T21:57:06.081Z,103716.53
2023-02-11T21:59:32.918Z,103718.34
2023-02-11T22:02:01.074Z,103713.97
2023-02-11T22:04:27.795Z,103715.78
2023-02-11T22:06:54.703Z,103720.22
2023-02-11T22:09:21.519Z,103722.88
2023-02-11T22:11:49.326Z,103716.72
2023-02-11T22:14:16.841Z,103717.59
2023-02-11T22:16:45.475Z,103722.88
2023-02-11T22:19:14.298Z,103717.72
2023-02-11T22:21:43.188Z,103715.06
2023-02-11T22:24:09.866Z,103715.06
2023-02-11T22:26:37.394Z,103720.47
2023-02-11T22:29:04.343Z,103718.66
2023-02-11T22:31:36.602Z,103723.97
2023-02-11T22:34:04.349Z,103724.16
2023-02-11T22:36:37.723Z,103725.00
2023-02-11T22:39:06.931Z,103726.06
2023-02-11T22:41:34.180Z,103734.88
2023-02-11T22:44:01.194Z,103731.25
2023-02-11T22:46:28.191Z,103733.91
2023-02-11T22:48:55.048Z,103736.47
2023-02-11T22:51:24.557Z,103733.81
2023-02-11T22:53:55.105Z,103735.63
2023-02-11T22:56:22.380Z,103741.78
2023-02-11T22:58:49.750Z,103735.63
2023-02-11T23:01:17.585Z,103744.44
2023-02-11T23:03:44.445Z,103739.22
2023-02-11T23:06:12.801Z,103736.56
2023-02-11T23:08:41.003Z,103731.34
2023-02-11T23:11:11.499Z,103727.84
2023-02-11T23:13:40.441Z,103727.97
2023-02-11T23:16:12.977Z,103735.09
2023-02-11T23:18:41.899Z,103733.28
2023-02-11T23:21:12.788Z,103734.22
2023-02-11T23:23:40.316Z,103735.09
2023-02-11T23:26:12.619Z,103736.88
2023-02-11T23:28:40.147Z,103728.06
2023-02-11T23:31:15.910Z,103731.69
2023-02-11T23:33:43.222Z,103733.38
2023-02-11T23:36:10.727Z,103732.63
2023-02-11T23:38:37.878Z,103732.63
2023-02-11T23:41:05.319Z,103743.22
2023-02-11T23:43:36.211Z,103746.75
2023-02-11T23:46:03.691Z,103755.56
2023-02-11T23:48:30.721Z,103757.34
2023-02-11T23:50:57.704Z,103742.38
2023-02-11T23:53:24.731Z,103739.72
2023-02-11T23:55:51.474Z,103742.38
2023-02-11T23:58:18.510Z,103739.72
